sensor_id;sensor_type;location;lat;lon;timestamp;P1;durP1;ratioP1;P2;durP2;ratioP2
11384;SDS011;5747;56.748;13.882;2024-02-21T00:00:28;23.73;;;6.20;;
11384;SDS011;5747;56.748;13.882;2024-02-21T00:02:58;37.43;;;6.93;;
11384;SDS011;5747;56.748;13.882;2024-02-21T00:05:28;22.07;;;6.40;;
11384;SDS011;5747;56.748;13.882;2024-02-21T00:07:58;25.73;;;6.73;;
11384;SDS011;5747;56.748;13.882;2024-02-21T00:10:27;21.30;;;6.00;;
11384;SDS011;5747;56.748;13.882;2024-02-21T00:12:55;24.60;;;6.43;;
11384;SDS011;5747;56.748;13.882;2024-02-21T00:15:23;30.47;;;7.03;;
11384;SDS011;5747;56.748;13.882;2024-02-21T00:17:52;26.37;;;5.97;;
11384;SDS011;5747;56.748;13.882;2024-02-21T00:20:21;27.00;;;7.33;;
11384;SDS011;5747;56.748;13.882;2024-02-21T00:22:51;21.57;;;6.23;;
11384;SDS011;5747;56.748;13.882;2024-02-21T00:25:21;29.53;;;6.70;;
11384;SDS011;5747;56.748;13.882;2024-02-21T00:27:49;32.70;;;7.27;;
11384;SDS011;5747;56.748;13.882;2024-02-21T00:30:17;26.73;;;6.73;;
11384;SDS011;5747;56.748;13.882;2024-02-21T00:32:46;27.67;;;7.03;;
11384;SDS011;5747;56.748;13.882;2024-02-21T00:35:14;26.63;;;7.63;;
11384;SDS011;5747;56.748;13.882;2024-02-21T00:37:44;26.90;;;7.17;;
11384;SDS011;5747;56.748;13.882;2024-02-21T00:40:12;31.47;;;7.67;;
11384;SDS011;5747;56.748;13.882;2024-02-21T00:42:42;34.20;;;7.43;;
11384;SDS011;5747;56.748;13.882;2024-02-21T00:45:11;30.07;;;7.27;;
11384;SDS011;5747;56.748;13.882;2024-02-21T00:47:39;29.93;;;7.10;;
11384;SDS011;5747;56.748;13.882;2024-02-21T00:50:08;24.70;;;7.70;;
11384;SDS011;5747;56.748;13.882;2024-02-21T00:52:37;28.73;;;7.97;;
11384;SDS011;5747;56.748;13.882;2024-02-21T00:55:07;34.10;;;7.90;;
11384;SDS011;5747;56.748;13.882;2024-02-21T00:57:36;27.00;;;6.83;;
11384;SDS011;5747;56.748;13.882;2024-02-21T01:00:05;28.23;;;8.00;;
11384;SDS011;5747;56.748;13.882;2024-02-21T01:02:34;32.87;;;8.80;;
11384;SDS011;5747;56.748;13.882;2024-02-21T01:05:02;31.80;;;8.10;;
11384;SDS011;5747;56.748;13.882;2024-02-21T01:07:31;24.73;;;7.20;;
11384;SDS011;5747;56.748;13.882;2024-02-21T01:09:59;33.03;;;8.57;;
11384;SDS011;5747;56.748;13.882;2024-02-21T01:12:29;39.67;;;8.47;;
11384;SDS011;5747;56.748;13.882;2024-02-21T01:14:57;33.13;;;8.30;;
11384;SDS011;5747;56.748;13.882;2024-02-21T01:17:26;33.87;;;8.37;;
11384;SDS011;5747;56.748;13.882;2024-02-21T01:19:54;32.90;;;7.80;;
11384;SDS011;5747;56.748;13.882;2024-02-21T01:22:22;30.57;;;8.27;;
11384;SDS011;5747;56.748;13.882;2024-02-21T01:24:50;36.63;;;8.60;;
11384;SDS011;5747;56.748;13.882;2024-02-21T01:27:18;35.70;;;8.20;;
11384;SDS011;5747;56.748;13.882;2024-02-21T01:29:48;27.57;;;8.23;;
11384;SDS011;5747;56.748;13.882;2024-02-21T01:32:17;31.57;;;8.20;;
11384;SDS011;5747;56.748;13.882;2024-02-21T01:34:45;38.23;;;8.80;;
11384;SDS011;5747;56.748;13.882;2024-02-21T01:37:13;30.77;;;8.73;;
11384;SDS011;5747;56.748;13.882;2024-02-21T01:39:41;20.97;;;7.77;;
11384;SDS011;5747;56.748;13.882;2024-02-21T01:42:09;25.60;;;8.40;;
11384;SDS011;5747;56.748;13.882;2024-02-21T01:44:38;26.33;;;7.97;;
11384;SDS011;5747;56.748;13.882;2024-02-21T01:47:07;25.17;;;8.17;;
11384;SDS011;5747;56.748;13.882;2024-02-21T01:49:37;27.87;;;9.07;;
11384;SDS011;5747;56.748;13.882;2024-02-21T01:52:06;21.83;;;8.47;;
11384;SDS011;5747;56.748;13.882;2024-02-21T01:54:35;23.60;;;7.50;;
11384;SDS011;5747;56.748;13.882;2024-02-21T01:57:03;22.17;;;7.70;;
11384;SDS011;5747;56.748;13.882;2024-02-21T01:59:32;21.67;;;8.17;;
11384;SDS011;5747;56.748;13.882;2024-02-21T02:02:02;28.20;;;8.27;;
11384;SDS011;5747;56.748;13.882;2024-02-21T02:04:31;24.13;;;7.77;;
11384;SDS011;5747;56.748;13.882;2024-02-21T02:07:01;26.47;;;8.37;;
11384;SDS011;5747;56.748;13.882;2024-02-21T02:09:32;28.17;;;8.40;;
11384;SDS011;5747;56.748;13.882;2024-02-21T02:12:00;19.97;;;8.57;;
11384;SDS011;5747;56.748;13.882;2024-02-21T02:14:29;21.43;;;7.80;;
11384;SDS011;5747;56.748;13.882;2024-02-21T02:16:58;18.93;;;8.13;;
11384;SDS011;5747;56.748;13.882;2024-02-21T02:19:26;20.27;;;8.33;;
11384;SDS011;5747;56.748;13.882;2024-02-21T02:21:58;19.60;;;8.30;;
11384;SDS011;5747;56.748;13.882;2024-02-21T02:24:33;19.53;;;7.57;;
11384;SDS011;5747;56.748;13.882;2024-02-21T02:27:01;16.60;;;7.93;;
11384;SDS011;5747;56.748;13.882;2024-02-21T02:29:31;19.37;;;8.67;;
11384;SDS011;5747;56.748;13.882;2024-02-21T02:31:59;22.47;;;8.13;;
11384;SDS011;5747;56.748;13.882;2024-02-21T02:34:28;17.20;;;7.60;;
11384;SDS011;5747;56.748;13.882;2024-02-21T02:36:57;16.47;;;7.90;;
11384;SDS011;5747;56.748;13.882;2024-02-21T02:39:25;22.63;;;7.73;;
11384;SDS011;5747;56.748;13.882;2024-02-21T02:41:55;14.53;;;6.87;;
11384;SDS011;5747;56.748;13.882;2024-02-21T02:44:23;20.47;;;7.57;;
11384;SDS011;5747;56.748;13.882;2024-02-21T02:46:51;18.60;;;8.77;;
11384;SDS011;5747;56.748;13.882;2024-02-21T02:49:19;19.13;;;8.20;;
11384;SDS011;5747;56.748;13.882;2024-02-21T02:51:48;14.30;;;8.07;;
11384;SDS011;5747;56.748;13.882;2024-02-21T02:54:16;18.07;;;8.53;;
11384;SDS011;5747;56.748;13.882;2024-02-21T02:56:44;15.10;;;8.23;;
11384;SDS011;5747;56.748;13.882;2024-02-21T02:59:14;16.80;;;8.53;;
11384;SDS011;5747;56.748;13.882;2024-02-21T03:01:42;15.80;;;7.87;;
11384;SDS011;5747;56.748;13.882;2024-02-21T03:04:09;15.90;;;8.23;;
11384;SDS011;5747;56.748;13.882;2024-02-21T03:06:38;15.93;;;8.17;;
11384;SDS011;5747;56.748;13.882;2024-02-21T03:09:06;13.00;;;7.30;;
11384;SDS011;5747;56.748;13.882;2024-02-21T03:11:35;18.63;;;8.23;;
11384;SDS011;5747;56.748;13.882;2024-02-21T03:14:07;14.27;;;7.17;;
11384;SDS011;5747;56.748;13.882;2024-02-21T03:16:37;14.97;;;7.43;;
11384;SDS011;5747;56.748;13.882;2024-02-21T03:19:05;16.37;;;7.63;;
11384;SDS011;5747;56.748;13.882;2024-02-21T03:21:33;15.07;;;8.37;;
11384;SDS011;5747;56.748;13.882;2024-02-21T03:24:02;20.77;;;8.57;;
11384;SDS011;5747;56.748;13.882;2024-02-21T03:26:30;15.50;;;8.90;;
11384;SDS011;5747;56.748;13.882;2024-02-21T03:28:59;15.80;;;8.47;;
11384;SDS011;5747;56.748;13.882;2024-02-21T03:31:27;15.20;;;8.30;;
11384;SDS011;5747;56.748;13.882;2024-02-21T03:33:59;17.20;;;8.63;;
11384;SDS011;5747;56.748;13.882;2024-02-21T03:36:27;17.03;;;9.57;;
11384;SDS011;5747;56.748;13.882;2024-02-21T03:38:55;14.90;;;9.03;;
11384;SDS011;5747;56.748;13.882;2024-02-21T03:41:24;14.87;;;8.83;;
11384;SDS011;5747;56.748;13.882;2024-02-21T03:43:52;15.17;;;8.57;;
11384;SDS011;5747;56.748;13.882;2024-02-21T03:46:21;13.57;;;9.13;;
11384;SDS011;5747;56.748;13.882;2024-02-21T03:48:49;15.43;;;8.90;;
11384;SDS011;5747;56.748;13.882;2024-02-21T03:51:18;12.87;;;8.57;;
11384;SDS011;5747;56.748;13.882;2024-02-21T03:53:47;14.87;;;8.50;;
11384;SDS011;5747;56.748;13.882;2024-02-21T03:56:15;15.27;;;8.37;;
11384;SDS011;5747;56.748;13.882;2024-02-21T03:58:43;10.37;;;7.50;;
11384;SDS011;5747;56.748;13.882;2024-02-21T04:01:11;15.77;;;7.60;;
11384;SDS011;5747;56.748;13.882;2024-02-21T04:03:40;14.73;;;8.90;;
11384;SDS011;5747;56.748;13.882;2024-02-21T04:06:08;14.47;;;8.40;;
11384;SDS011;5747;56.748;13.882;2024-02-21T04:08:38;14.30;;;9.00;;
11384;SDS011;5747;56.748;13.882;2024-02-21T04:11:07;16.67;;;8.77;;
11384;SDS011;5747;56.748;13.882;2024-02-21T04:13:35;16.97;;;8.70;;
11384;SDS011;5747;56.748;13.882;2024-02-21T04:16:03;15.73;;;9.23;;
11384;SDS011;5747;56.748;13.882;2024-02-21T04:18:32;17.83;;;9.43;;
11384;SDS011;5747;56.748;13.882;2024-02-21T04:21:00;14.37;;;8.47;;
11384;SDS011;5747;56.748;13.882;2024-02-21T04:23:28;19.57;;;9.30;;
11384;SDS011;5747;56.748;13.882;2024-02-21T04:25:58;15.43;;;8.47;;
11384;SDS011;5747;56.748;13.882;2024-02-21T04:28:26;15.17;;;8.63;;
11384;SDS011;5747;56.748;13.882;2024-02-21T04:30:54;11.07;;;7.70;;
11384;SDS011;5747;56.748;13.882;2024-02-21T04:33:22;14.13;;;7.17;;
11384;SDS011;5747;56.748;13.882;2024-02-21T04:35:51;9.23;;;6.47;;
11384;SDS011;5747;56.748;13.882;2024-02-21T04:38:21;10.40;;;6.00;;
11384;SDS011;5747;56.748;13.882;2024-02-21T04:40:49;8.03;;;5.17;;
11384;SDS011;5747;56.748;13.882;2024-02-21T04:43:19;6.90;;;4.67;;
11384;SDS011;5747;56.748;13.882;2024-02-21T04:45:47;7.27;;;4.70;;
11384;SDS011;5747;56.748;13.882;2024-02-21T04:48:15;7.20;;;4.73;;
11384;SDS011;5747;56.748;13.882;2024-02-21T04:50:43;6.83;;;4.57;;
11384;SDS011;5747;56.748;13.882;2024-02-21T04:53:12;6.30;;;4.30;;
11384;SDS011;5747;56.748;13.882;2024-02-21T04:55:40;7.10;;;4.57;;
11384;SDS011;5747;56.748;13.882;2024-02-21T04:58:08;5.93;;;4.30;;
11384;SDS011;5747;56.748;13.882;2024-02-21T05:00:38;6.57;;;4.27;;
11384;SDS011;5747;56.748;13.882;2024-02-21T05:03:06;6.80;;;4.30;;
11384;SDS011;5747;56.748;13.882;2024-02-21T05:05:35;6.73;;;4.67;;
11384;SDS011;5747;56.748;13.882;2024-02-21T05:08:03;5.57;;;3.87;;
11384;SDS011;5747;56.748;13.882;2024-02-21T05:10:32;6.50;;;3.90;;
11384;SDS011;5747;56.748;13.882;2024-02-21T05:13:00;6.33;;;3.97;;
11384;SDS011;5747;56.748;13.882;2024-02-21T05:15:29;5.63;;;3.80;;
11384;SDS011;5747;56.748;13.882;2024-02-21T05:17:59;5.40;;;4.10;;
11384;SDS011;5747;56.748;13.882;2024-02-21T05:20:28;4.80;;;3.50;;
11384;SDS011;5747;56.748;13.882;2024-02-21T05:22:56;4.43;;;3.67;;
11384;SDS011;5747;56.748;13.882;2024-02-21T05:25:25;5.40;;;3.60;;
11384;SDS011;5747;56.748;13.882;2024-02-21T05:27:53;4.43;;;3.30;;
11384;SDS011;5747;56.748;13.882;2024-02-21T05:30:22;3.33;;;2.40;;
11384;SDS011;5747;56.748;13.882;2024-02-21T05:32:50;3.07;;;2.30;;
11384;SDS011;5747;56.748;13.882;2024-02-21T05:35:20;3.40;;;2.90;;
11384;SDS011;5747;56.748;13.882;2024-02-21T05:37:53;3.37;;;2.67;;
11384;SDS011;5747;56.748;13.882;2024-02-21T05:40:21;3.70;;;2.70;;
11384;SDS011;5747;56.748;13.882;2024-02-21T05:42:50;2.87;;;2.57;;
11384;SDS011;5747;56.748;13.882;2024-02-21T05:45:18;4.30;;;1.77;;
11384;SDS011;5747;56.748;13.882;2024-02-21T05:47:46;3.30;;;2.07;;
11384;SDS011;5747;56.748;13.882;2024-02-21T05:50:15;1.70;;;1.60;;
11384;SDS011;5747;56.748;13.882;2024-02-21T05:52:45;1.90;;;1.70;;
11384;SDS011;5747;56.748;13.882;2024-02-21T05:55:13;1.70;;;1.43;;
11384;SDS011;5747;56.748;13.882;2024-02-21T05:57:42;1.80;;;1.47;;
11384;SDS011;5747;56.748;13.882;2024-02-21T06:00:10;2.00;;;1.63;;
11384;SDS011;5747;56.748;13.882;2024-02-21T06:02:39;1.53;;;1.30;;
11384;SDS011;5747;56.748;13.882;2024-02-21T06:05:08;1.90;;;1.17;;
11384;SDS011;5747;56.748;13.882;2024-02-21T06:07:36;1.23;;;1.13;;
11384;SDS011;5747;56.748;13.882;2024-02-21T06:10:07;1.07;;;0.97;;
11384;SDS011;5747;56.748;13.882;2024-02-21T06:12:36;1.27;;;1.00;;
11384;SDS011;5747;56.748;13.882;2024-02-21T06:15:04;0.80;;;0.80;;
11384;SDS011;5747;56.748;13.882;2024-02-21T06:17:33;1.47;;;0.97;;
11384;SDS011;5747;56.748;13.882;2024-02-21T06:20:02;1.17;;;0.80;;
11384;SDS011;5747;56.748;13.882;2024-02-21T06:22:31;1.10;;;1.00;;
11384;SDS011;5747;56.748;13.882;2024-02-21T06:24:59;1.83;;;0.97;;
11384;SDS011;5747;56.748;13.882;2024-02-21T06:27:30;1.30;;;0.93;;
11384;SDS011;5747;56.748;13.882;2024-02-21T06:29:58;3.40;;;1.37;;
11384;SDS011;5747;56.748;13.882;2024-02-21T06:32:26;2.90;;;1.20;;
11384;SDS011;5747;56.748;13.882;2024-02-21T06:34:54;2.57;;;1.40;;
11384;SDS011;5747;56.748;13.882;2024-02-21T06:37:23;3.03;;;1.27;;
11384;SDS011;5747;56.748;13.882;2024-02-21T06:39:51;1.83;;;1.33;;
11384;SDS011;5747;56.748;13.882;2024-02-21T06:42:19;6.10;;;1.60;;
11384;SDS011;5747;56.748;13.882;2024-02-21T06:44:49;4.70;;;1.60;;
11384;SDS011;5747;56.748;13.882;2024-02-21T06:47:17;2.80;;;1.30;;
11384;SDS011;5747;56.748;13.882;2024-02-21T06:49:48;4.03;;;1.73;;
11384;SDS011;5747;56.748;13.882;2024-02-21T06:52:17;3.77;;;1.47;;
11384;SDS011;5747;56.748;13.882;2024-02-21T06:54:47;3.23;;;1.70;;
11384;SDS011;5747;56.748;13.882;2024-02-21T06:57:15;8.20;;;1.80;;
11384;SDS011;5747;56.748;13.882;2024-02-21T06:59:43;3.37;;;1.47;;
11384;SDS011;5747;56.748;13.882;2024-02-21T07:02:13;4.27;;;1.70;;
11384;SDS011;5747;56.748;13.882;2024-02-21T07:04:41;4.07;;;1.77;;
11384;SDS011;5747;56.748;13.882;2024-02-21T07:07:10;4.00;;;1.43;;
11384;SDS011;5747;56.748;13.882;2024-02-21T07:09:39;4.17;;;1.70;;
11384;SDS011;5747;56.748;13.882;2024-02-21T07:12:08;8.90;;;2.00;;
11384;SDS011;5747;56.748;13.882;2024-02-21T07:14:37;4.53;;;2.03;;
11384;SDS011;5747;56.748;13.882;2024-02-21T07:17:05;3.80;;;1.73;;
11384;SDS011;5747;56.748;13.882;2024-02-21T07:19:35;5.67;;;1.63;;
11384;SDS011;5747;56.748;13.882;2024-02-21T07:22:03;2.90;;;1.70;;
11384;SDS011;5747;56.748;13.882;2024-02-21T07:24:31;4.40;;;1.60;;
11384;SDS011;5747;56.748;13.882;2024-02-21T07:26:59;6.43;;;1.80;;
11384;SDS011;5747;56.748;13.882;2024-02-21T07:29:31;5.97;;;1.63;;
11384;SDS011;5747;56.748;13.882;2024-02-21T07:31:59;3.60;;;1.57;;
11384;SDS011;5747;56.748;13.882;2024-02-21T07:34:27;4.60;;;1.43;;
11384;SDS011;5747;56.748;13.882;2024-02-21T07:36:57;4.33;;;1.27;;
11384;SDS011;5747;56.748;13.882;2024-02-21T07:39:25;4.10;;;1.70;;
11384;SDS011;5747;56.748;13.882;2024-02-21T07:41:54;3.63;;;1.33;;
11384;SDS011;5747;56.748;13.882;2024-02-21T07:44:22;3.13;;;1.20;;
11384;SDS011;5747;56.748;13.882;2024-02-21T07:46:50;6.13;;;1.70;;
11384;SDS011;5747;56.748;13.882;2024-02-21T07:49:18;5.13;;;1.20;;
11384;SDS011;5747;56.748;13.882;2024-02-21T07:51:47;2.70;;;1.27;;
11384;SDS011;5747;56.748;13.882;2024-02-21T07:54:16;2.33;;;0.90;;
11384;SDS011;5747;56.748;13.882;2024-02-21T07:56:46;6.63;;;1.40;;
11384;SDS011;5747;56.748;13.882;2024-02-21T07:59:15;3.13;;;1.60;;
11384;SDS011;5747;56.748;13.882;2024-02-21T08:01:43;4.17;;;1.37;;
11384;SDS011;5747;56.748;13.882;2024-02-21T08:04:12;3.13;;;1.10;;
11384;SDS011;5747;56.748;13.882;2024-02-21T08:06:41;5.67;;;1.60;;
11384;SDS011;5747;56.748;13.882;2024-02-21T08:09:10;5.60;;;1.80;;
11384;SDS011;5747;56.748;13.882;2024-02-21T08:11:39;6.40;;;1.70;;
11384;SDS011;5747;56.748;13.882;2024-02-21T08:14:07;6.10;;;1.80;;
11384;SDS011;5747;56.748;13.882;2024-02-21T08:16:36;4.93;;;1.43;;
11384;SDS011;5747;56.748;13.882;2024-02-21T08:19:04;3.53;;;1.37;;
11384;SDS011;5747;56.748;13.882;2024-02-21T08:21:32;3.73;;;1.47;;
11384;SDS011;5747;56.748;13.882;2024-02-21T08:24:00;8.20;;;1.60;;
11384;SDS011;5747;56.748;13.882;2024-02-21T08:26:29;6.17;;;1.93;;
11384;SDS011;5747;56.748;13.882;2024-02-21T08:28:59;6.70;;;1.70;;
11384;SDS011;5747;56.748;13.882;2024-02-21T08:31:27;7.13;;;1.50;;
11384;SDS011;5747;56.748;13.882;2024-02-21T08:33:58;7.13;;;1.60;;
11384;SDS011;5747;56.748;13.882;2024-02-21T08:36:29;6.87;;;1.50;;
11384;SDS011;5747;56.748;13.882;2024-02-21T08:38:58;9.03;;;1.70;;
11384;SDS011;5747;56.748;13.882;2024-02-21T08:41:27;5.60;;;1.67;;
11384;SDS011;5747;56.748;13.882;2024-02-21T08:44:16;6.67;;;2.20;;
11384;SDS011;5747;56.748;13.882;2024-02-21T08:46:45;9.90;;;2.00;;
11384;SDS011;5747;56.748;13.882;2024-02-21T08:49:13;7.00;;;2.10;;
11384;SDS011;5747;56.748;13.882;2024-02-21T08:51:42;9.47;;;1.97;;
11384;SDS011;5747;56.748;13.882;2024-02-21T08:54:10;8.80;;;2.43;;
11384;SDS011;5747;56.748;13.882;2024-02-21T08:56:39;9.33;;;1.90;;
11384;SDS011;5747;56.748;13.882;2024-02-21T08:59:07;8.07;;;2.27;;
11384;SDS011;5747;56.748;13.882;2024-02-21T09:01:36;9.73;;;2.00;;
11384;SDS011;5747;56.748;13.882;2024-02-21T09:04:05;11.57;;;2.23;;
11384;SDS011;5747;56.748;13.882;2024-02-21T09:06:34;11.50;;;2.70;;
11384;SDS011;5747;56.748;13.882;2024-02-21T09:09:05;9.83;;;2.23;;
11384;SDS011;5747;56.748;13.882;2024-02-21T09:11:34;8.30;;;2.10;;
11384;SDS011;5747;56.748;13.882;2024-02-21T09:14:02;15.87;;;2.67;;
11384;SDS011;5747;56.748;13.882;2024-02-21T09:16:31;6.83;;;2.00;;
11384;SDS011;5747;56.748;13.882;2024-02-21T09:19:01;8.60;;;2.27;;
11384;SDS011;5747;56.748;13.882;2024-02-21T09:21:29;4.87;;;1.80;;
11384;SDS011;5747;56.748;13.882;2024-02-21T09:23:58;7.37;;;2.00;;
11384;SDS011;5747;56.748;13.882;2024-02-21T09:26:26;11.43;;;2.00;;
11384;SDS011;5747;56.748;13.882;2024-02-21T09:28:54;11.23;;;1.67;;
11384;SDS011;5747;56.748;13.882;2024-02-21T09:31:23;5.83;;;1.87;;
11384;SDS011;5747;56.748;13.882;2024-02-21T09:33:51;6.40;;;1.67;;
11384;SDS011;5747;56.748;13.882;2024-02-21T09:36:21;5.27;;;1.70;;
11384;SDS011;5747;56.748;13.882;2024-02-21T09:38:49;8.73;;;1.73;;
11384;SDS011;5747;56.748;13.882;2024-02-21T09:41:18;8.30;;;1.73;;
11384;SDS011;5747;56.748;13.882;2024-02-21T09:43:52;3.40;;;1.23;;
11384;SDS011;5747;56.748;13.882;2024-02-21T09:46:24;6.70;;;1.47;;
11384;SDS011;5747;56.748;13.882;2024-02-21T09:49:04;5.97;;;1.57;;
11384;SDS011;5747;56.748;13.882;2024-02-21T09:51:42;5.03;;;1.60;;
11384;SDS011;5747;56.748;13.882;2024-02-21T09:54:12;7.53;;;1.53;;
11384;SDS011;5747;56.748;13.882;2024-02-21T09:56:44;5.53;;;1.30;;
11384;SDS011;5747;56.748;13.882;2024-02-21T09:59:13;6.03;;;1.50;;
11384;SDS011;5747;56.748;13.882;2024-02-21T10:01:43;2.50;;;1.00;;
11384;SDS011;5747;56.748;13.882;2024-02-21T10:04:13;6.00;;;1.10;;
11384;SDS011;5747;56.748;13.882;2024-02-21T10:06:43;5.60;;;1.20;;
11384;SDS011;5747;56.748;13.882;2024-02-21T10:09:19;5.10;;;1.20;;
11384;SDS011;5747;56.748;13.882;2024-02-21T10:11:49;3.97;;;0.83;;
11384;SDS011;5747;56.748;13.882;2024-02-21T10:14:18;4.37;;;0.90;;
11384;SDS011;5747;56.748;13.882;2024-02-21T10:16:47;1.53;;;0.73;;
11384;SDS011;5747;56.748;13.882;2024-02-21T10:19:16;0.90;;;0.63;;
11384;SDS011;5747;56.748;13.882;2024-02-21T10:22:00;2.10;;;0.70;;
11384;SDS011;5747;56.748;13.882;2024-02-21T10:24:30;1.03;;;0.60;;
11384;SDS011;5747;56.748;13.882;2024-02-21T10:27:02;1.43;;;0.47;;
11384;SDS011;5747;56.748;13.882;2024-02-21T10:29:34;0.70;;;0.50;;
11384;SDS011;5747;56.748;13.882;2024-02-21T10:32:03;0.70;;;0.50;;
11384;SDS011;5747;56.748;13.882;2024-02-21T10:34:34;1.23;;;0.37;;
11384;SDS011;5747;56.748;13.882;2024-02-21T10:37:04;1.20;;;0.60;;
11384;SDS011;5747;56.748;13.882;2024-02-21T10:39:36;0.97;;;0.30;;
11384;SDS011;5747;56.748;13.882;2024-02-21T10:42:05;1.43;;;0.70;;
11384;SDS011;5747;56.748;13.882;2024-02-21T10:44:36;0.60;;;0.30;;
11384;SDS011;5747;56.748;13.882;2024-02-21T10:47:07;0.30;;;0.17;;
11384;SDS011;5747;56.748;13.882;2024-02-21T10:49:38;0.23;;;0.20;;
11384;SDS011;5747;56.748;13.882;2024-02-21T10:52:13;0.20;;;0.20;;
11384;SDS011;5747;56.748;13.882;2024-02-21T10:54:45;0.70;;;0.10;;
11384;SDS011;5747;56.748;13.882;2024-02-21T10:57:17;0.13;;;0.13;;
11384;SDS011;5747;56.748;13.882;2024-02-21T10:59:49;0.10;;;0.10;;
11384;SDS011;5747;56.748;13.882;2024-02-21T11:02:18;0.40;;;0.10;;
11384;SDS011;5747;56.748;13.882;2024-02-21T11:04:47;0.50;;;0.10;;
11384;SDS011;5747;56.748;13.882;2024-02-21T11:07:20;1.03;;;0.30;;
11384;SDS011;5747;56.748;13.882;2024-02-21T11:09:51;0.50;;;0.20;;
11384;SDS011;5747;56.748;13.882;2024-02-21T11:12:22;0.90;;;0.10;;
11384;SDS011;5747;56.748;13.882;2024-02-21T11:14:52;1.13;;;0.10;;
11384;SDS011;5747;56.748;13.882;2024-02-21T11:17:20;0.37;;;0.20;;
11384;SDS011;5747;56.748;13.882;2024-02-21T11:19:52;0.70;;;0.43;;
11384;SDS011;5747;56.748;13.882;2024-02-21T11:22:22;0.20;;;0.20;;
11384;SDS011;5747;56.748;13.882;2024-02-21T11:25:05;0.20;;;0.20;;
11384;SDS011;5747;56.748;13.882;2024-02-21T11:27:35;0.37;;;0.37;;
11384;SDS011;5747;56.748;13.882;2024-02-21T11:30:04;0.60;;;0.30;;
11384;SDS011;5747;56.748;13.882;2024-02-21T11:32:33;0.30;;;0.30;;
11384;SDS011;5747;56.748;13.882;2024-02-21T11:35:02;0.50;;;0.30;;
11384;SDS011;5747;56.748;13.882;2024-02-21T11:37:35;0.73;;;0.30;;
11384;SDS011;5747;56.748;13.882;2024-02-21T11:40:04;0.20;;;0.20;;
11384;SDS011;5747;56.748;13.882;2024-02-21T11:42:37;1.20;;;0.60;;
11384;SDS011;5747;56.748;13.882;2024-02-21T11:45:06;0.70;;;0.50;;
11384;SDS011;5747;56.748;13.882;2024-02-21T11:47:35;0.43;;;0.40;;
11384;SDS011;5747;56.748;13.882;2024-02-21T11:50:09;0.70;;;0.40;;
11384;SDS011;5747;56.748;13.882;2024-02-21T11:52:40;0.60;;;0.40;;
11384;SDS011;5747;56.748;13.882;2024-02-21T11:55:09;0.70;;;0.70;;
11384;SDS011;5747;56.748;13.882;2024-02-21T11:57:37;0.70;;;0.60;;
11384;SDS011;5747;56.748;13.882;2024-02-21T12:00:13;2.60;;;1.00;;
11384;SDS011;5747;56.748;13.882;2024-02-21T12:02:43;1.63;;;1.17;;
11384;SDS011;5747;56.748;13.882;2024-02-21T12:05:11;0.97;;;0.80;;
11384;SDS011;5747;56.748;13.882;2024-02-21T12:07:42;0.60;;;0.60;;
11384;SDS011;5747;56.748;13.882;2024-02-21T12:10:11;1.10;;;1.00;;
11384;SDS011;5747;56.748;13.882;2024-02-21T12:12:40;1.10;;;0.97;;
11384;SDS011;5747;56.748;13.882;2024-02-21T12:15:08;2.13;;;1.00;;
11384;SDS011;5747;56.748;13.882;2024-02-21T12:17:37;1.37;;;0.90;;
11384;SDS011;5747;56.748;13.882;2024-02-21T12:20:07;1.20;;;0.80;;
11384;SDS011;5747;56.748;13.882;2024-02-21T12:22:38;0.70;;;0.70;;
11384;SDS011;5747;56.748;13.882;2024-02-21T12:25:16;1.70;;;0.80;;
11384;SDS011;5747;56.748;13.882;2024-02-21T12:27:46;0.93;;;0.70;;
11384;SDS011;5747;56.748;13.882;2024-02-21T12:30:15;0.90;;;0.70;;
11384;SDS011;5747;56.748;13.882;2024-02-21T12:32:44;2.10;;;0.67;;
11384;SDS011;5747;56.748;13.882;2024-02-21T12:35:12;0.67;;;0.63;;
11384;SDS011;5747;56.748;13.882;2024-02-21T12:37:40;0.90;;;0.90;;
11384;SDS011;5747;56.748;13.882;2024-02-21T12:40:09;1.27;;;0.70;;
11384;SDS011;5747;56.748;13.882;2024-02-21T12:42:41;0.90;;;0.90;;
11384;SDS011;5747;56.748;13.882;2024-02-21T12:45:09;1.60;;;0.80;;
11384;SDS011;5747;56.748;13.882;2024-02-21T12:47:38;1.07;;;0.50;;
11384;SDS011;5747;56.748;13.882;2024-02-21T12:50:07;1.27;;;0.57;;
11384;SDS011;5747;56.748;13.882;2024-02-21T12:52:36;0.80;;;0.60;;
11384;SDS011;5747;56.748;13.882;2024-02-21T12:55:04;1.23;;;0.70;;
11384;SDS011;5747;56.748;13.882;2024-02-21T12:57:33;0.70;;;0.50;;
11384;SDS011;5747;56.748;13.882;2024-02-21T13:00:03;0.60;;;0.60;;
11384;SDS011;5747;56.748;13.882;2024-02-21T13:02:35;0.57;;;0.40;;
11384;SDS011;5747;56.748;13.882;2024-02-21T13:05:05;0.60;;;0.40;;
11384;SDS011;5747;56.748;13.882;2024-02-21T13:07:34;1.63;;;0.37;;
11384;SDS011;5747;56.748;13.882;2024-02-21T13:10:01;0.40;;;0.40;;
11384;SDS011;5747;56.748;13.882;2024-02-21T13:12:31;0.93;;;0.50;;
11384;SDS011;5747;56.748;13.882;2024-02-21T13:15:00;1.70;;;0.40;;
11384;SDS011;5747;56.748;13.882;2024-02-21T13:17:29;2.00;;;0.30;;
11384;SDS011;5747;56.748;13.882;2024-02-21T13:19:58;0.63;;;0.50;;
11384;SDS011;5747;56.748;13.882;2024-02-21T13:22:27;1.70;;;0.60;;
11384;SDS011;5747;56.748;13.882;2024-02-21T13:24:55;0.83;;;0.60;;
11384;SDS011;5747;56.748;13.882;2024-02-21T13:27:24;0.60;;;0.50;;
11384;SDS011;5747;56.748;13.882;2024-02-21T13:29:52;0.70;;;0.40;;
11384;SDS011;5747;56.748;13.882;2024-02-21T13:32:21;1.13;;;0.60;;
11384;SDS011;5747;56.748;13.882;2024-02-21T13:34:50;0.60;;;0.43;;
11384;SDS011;5747;56.748;13.882;2024-02-21T13:37:19;0.60;;;0.40;;
11384;SDS011;5747;56.748;13.882;2024-02-21T13:39:48;0.80;;;0.40;;
11384;SDS011;5747;56.748;13.882;2024-02-21T13:42:16;0.90;;;0.90;;
11384;SDS011;5747;56.748;13.882;2024-02-21T13:44:45;2.37;;;0.70;;
11384;SDS011;5747;56.748;13.882;2024-02-21T13:47:14;1.87;;;0.70;;
11384;SDS011;5747;56.748;13.882;2024-02-21T13:49:42;0.57;;;0.57;;
11384;SDS011;5747;56.748;13.882;2024-02-21T13:52:12;0.50;;;0.50;;
11384;SDS011;5747;56.748;13.882;2024-02-21T13:54:41;0.70;;;0.60;;
11384;SDS011;5747;56.748;13.882;2024-02-21T13:57:09;2.40;;;0.60;;
11384;SDS011;5747;56.748;13.882;2024-02-21T13:59:37;0.67;;;0.53;;
11384;SDS011;5747;56.748;13.882;2024-02-21T14:02:06;2.93;;;0.90;;
11384;SDS011;5747;56.748;13.882;2024-02-21T14:04:34;1.73;;;1.00;;
11384;SDS011;5747;56.748;13.882;2024-02-21T14:07:03;2.47;;;1.30;;
11384;SDS011;5747;56.748;13.882;2024-02-21T14:09:33;2.23;;;1.37;;
11384;SDS011;5747;56.748;13.882;2024-02-21T14:12:01;3.50;;;1.63;;
11384;SDS011;5747;56.748;13.882;2024-02-21T14:14:33;4.80;;;1.77;;
11384;SDS011;5747;56.748;13.882;2024-02-21T14:17:05;3.27;;;1.93;;
11384;SDS011;5747;56.748;13.882;2024-02-21T14:19:33;3.03;;;1.83;;
11384;SDS011;5747;56.748;13.882;2024-02-21T14:22:02;4.63;;;2.40;;
11384;SDS011;5747;56.748;13.882;2024-02-21T14:24:30;6.23;;;2.57;;
11384;SDS011;5747;56.748;13.882;2024-02-21T14:26:59;6.13;;;2.80;;
11384;SDS011;5747;56.748;13.882;2024-02-21T14:29:27;6.70;;;2.33;;
11384;SDS011;5747;56.748;13.882;2024-02-21T14:31:56;5.13;;;2.40;;
11384;SDS011;5747;56.748;13.882;2024-02-21T14:34:24;7.80;;;3.20;;
11384;SDS011;5747;56.748;13.882;2024-02-21T14:36:53;5.97;;;3.17;;
11384;SDS011;5747;56.748;13.882;2024-02-21T14:39:21;9.57;;;3.50;;
11384;SDS011;5747;56.748;13.882;2024-02-21T14:41:50;11.53;;;3.73;;
11384;SDS011;5747;56.748;13.882;2024-02-21T14:44:19;9.10;;;3.80;;
11384;SDS011;5747;56.748;13.882;2024-02-21T14:46:47;12.63;;;3.73;;
11384;SDS011;5747;56.748;13.882;2024-02-21T14:49:16;8.27;;;3.30;;
11384;SDS011;5747;56.748;13.882;2024-02-21T14:51:47;6.67;;;3.07;;
11384;SDS011;5747;56.748;13.882;2024-02-21T14:54:15;10.43;;;3.23;;